sensor_id;sensor_type;location;lat;lon;timestamp;temperature;humidity
36556;DHT22;40859;50.560;7.268;2023-03-01T00:01:00;21.00;64.50
36556;DHT22;40859;50.560;7.268;2023-03-01T00:03:26;21.00;63.70
36556;DHT22;40859;50.560;7.268;2023-03-01T00:05:52;21.00;63.70
36556;DHT22;40859;50.560;7.268;2023-03-01T00:08:18;21.00;63.20
36556;DHT22;40859;50.560;7.268;2023-03-01T00:10:43;21.00;64.40
36556;DHT22;40859;50.560;7.268;2023-03-01T00:13:09;21.00;63.60
36556;DHT22;40859;50.560;7.268;2023-03-01T00:15:37;21.00;63.70
36556;DHT22;40859;50.560;7.268;2023-03-01T00:18:03;21.00;63.70
36556;DHT22;40859;50.560;7.268;2023-03-01T00:20:28;21.10;63.60
36556;DHT22;40859;50.560;7.268;2023-03-01T00:22:54;21.00;63.60
36556;DHT22;40859;50.560;7.268;2023-03-01T00:25:20;21.00;63.70
36556;DHT22;40859;50.560;7.268;2023-03-01T00:27:46;21.00;63.70
36556;DHT22;40859;50.560;7.268;2023-03-01T00:30:13;21.00;63.70
36556;DHT22;40859;50.560;7.268;2023-03-01T00:32:38;21.00;63.50
36556;DHT22;40859;50.560;7.268;2023-03-01T00:35:04;21.00;63.60
36556;DHT22;40859;50.560;7.268;2023-03-01T00:37:31;21.10;63.70
36556;DHT22;40859;50.560;7.268;2023-03-01T00:39:56;21.00;63.70
36556;DHT22;40859;50.560;7.268;2023-03-01T00:42:22;21.00;63.60
36556;DHT22;40859;50.560;7.268;2023-03-01T00:44:48;21.00;63.70
36556;DHT22;40859;50.560;7.268;2023-03-01T00:47:14;21.00;63.60
36556;DHT22;40859;50.560;7.268;2023-03-01T00:49:40;21.00;63.60
36556;DHT22;40859;50.560;7.268;2023-03-01T00:52:05;21.00;63.70
36556;DHT22;40859;50.560;7.268;2023-03-01T00:54:31;21.00;63.70
36556;DHT22;40859;50.560;7.268;2023-03-01T00:56:57;21.00;63.20
36556;DHT22;40859;50.560;7.268;2023-03-01T00:59:22;21.00;63.50
36556;DHT22;40859;50.560;7.268;2023-03-01T01:01:48;21.00;63.60
36556;DHT22;40859;50.560;7.268;2023-03-01T01:04:14;21.00;63.50
36556;DHT22;40859;50.560;7.268;2023-03-01T01:06:43;21.00;64.50
36556;DHT22;40859;50.560;7.268;2023-03-01T01:09:10;21.00;63.70
36556;DHT22;40859;50.560;7.268;2023-03-01T01:11:42;21.00;63.70
36556;DHT22;40859;50.560;7.268;2023-03-01T01:14:08;21.00;63.60
36556;DHT22;40859;50.560;7.268;2023-03-01T01:16:34;21.00;63.60
36556;DHT22;40859;50.560;7.268;2023-03-01T01:19:00;21.00;63.50
36556;DHT22;40859;50.560;7.268;2023-03-01T01:21:26;21.00;63.70
36556;DHT22;40859;50.560;7.268;2023-03-01T01:23:52;21.00;63.80
36556;DHT22;40859;50.560;7.268;2023-03-01T01:26:19;21.00;63.70
36556;DHT22;40859;50.560;7.268;2023-03-01T01:28:46;21.00;63.70
36556;DHT22;40859;50.560;7.268;2023-03-01T01:31:12;21.00;63.10
36556;DHT22;40859;50.560;7.268;2023-03-01T01:33:37;21.00;63.60
36556;DHT22;40859;50.560;7.268;2023-03-01T01:36:04;21.00;63.70
36556;DHT22;40859;50.560;7.268;2023-03-01T01:38:30;20.90;63.60
36556;DHT22;40859;50.560;7.268;2023-03-01T01:40:56;20.90;63.60
36556;DHT22;40859;50.560;7.268;2023-03-01T01:43:33;21.00;63.10
36556;DHT22;40859;50.560;7.268;2023-03-01T01:46:01;20.90;63.60
36556;DHT22;40859;50.560;7.268;2023-03-01T01:48:29;20.90;63.50
36556;DHT22;40859;50.560;7.268;2023-03-01T01:51:05;20.90;63.60
36556;DHT22;40859;50.560;7.268;2023-03-01T01:53:32;20.90;63.90
36556;DHT22;40859;50.560;7.268;2023-03-01T01:55:58;20.90;64.30
36556;DHT22;40859;50.560;7.268;2023-03-01T01:58:25;20.90;63.30
36556;DHT22;40859;50.560;7.268;2023-03-01T02:00:53;21.00;63.60
36556;DHT22;40859;50.560;7.268;2023-03-01T02:03:40;20.90;64.10
36556;DHT22;40859;50.560;7.268;2023-03-01T02:06:19;20.90;63.60
36556;DHT22;40859;50.560;7.268;2023-03-01T02:08:47;20.90;63.70
36556;DHT22;40859;50.560;7.268;2023-03-01T02:11:14;20.90;63.40
36556;DHT22;40859;50.560;7.268;2023-03-01T02:13:40;20.90;63.30
36556;DHT22;40859;50.560;7.268;2023-03-01T02:16:10;20.90;63.30
36556;DHT22;40859;50.560;7.268;2023-03-01T02:18:37;20.90;63.30
36556;DHT22;40859;50.560;7.268;2023-03-01T02:21:05;20.90;63.40
36556;DHT22;40859;50.560;7.268;2023-03-01T02:23:33;20.90;63.40
36556;DHT22;40859;50.560;7.268;2023-03-01T02:26:11;20.90;64.40
36556;DHT22;40859;50.560;7.268;2023-03-01T02:28:42;20.90;64.00
36556;DHT22;40859;50.560;7.268;2023-03-01T02:31:09;20.90;62.50
36556;DHT22;40859;50.560;7.268;2023-03-01T02:33:54;20.90;63.20
36556;DHT22;40859;50.560;7.268;2023-03-01T02:36:21;20.90;63.20
36556;DHT22;40859;50.560;7.268;2023-03-01T02:38:48;20.90;63.20
36556;DHT22;40859;50.560;7.268;2023-03-01T02:41:15;20.90;63.30
36556;DHT22;40859;50.560;7.268;2023-03-01T02:43:41;20.90;63.40
36556;DHT22;40859;50.560;7.268;2023-03-01T02:46:13;20.90;63.20
36556;DHT22;40859;50.560;7.268;2023-03-01T02:48:50;20.90;63.20
36556;DHT22;40859;50.560;7.268;2023-03-01T02:51:18;20.90;63.20
36556;DHT22;40859;50.560;7.268;2023-03-01T02:54:03;20.90;63.20
36556;DHT22;40859;50.560;7.268;2023-03-01T02:56:32;20.90;63.20
36556;DHT22;40859;50.560;7.268;2023-03-01T02:58:58;20.90;62.50
36556;DHT22;40859;50.560;7.268;2023-03-01T03:01:26;20.90;63.00
36556;DHT22;40859;50.560;7.268;2023-03-01T03:04:03;20.90;63.20
36556;DHT22;40859;50.560;7.268;2023-03-01T03:06:29;20.90;63.00
36556;DHT22;40859;50.560;7.268;2023-03-01T03:08:54;20.90;64.10
36556;DHT22;40859;50.560;7.268;2023-03-01T03:11:20;20.80;62.90
36556;DHT22;40859;50.560;7.268;2023-03-01T03:13:46;20.80;62.90
36556;DHT22;40859;50.560;7.268;2023-03-01T03:16:13;20.80;64.00
36556;DHT22;40859;50.560;7.268;2023-03-01T03:18:39;20.80;63.30
36556;DHT22;40859;50.560;7.268;2023-03-01T03:21:08;20.80;63.70
36556;DHT22;40859;50.560;7.268;2023-03-01T03:23:35;20.80;62.80
36556;DHT22;40859;50.560;7.268;2023-03-01T03:26:02;20.80;62.80
36556;DHT22;40859;50.560;7.268;2023-03-01T03:28:29;20.80;62.80
36556;DHT22;40859;50.560;7.268;2023-03-01T03:30:56;20.80;62.90
36556;DHT22;40859;50.560;7.268;2023-03-01T03:33:21;20.80;62.80
36556;DHT22;40859;50.560;7.268;2023-03-01T03:35:48;20.80;62.80
36556;DHT22;40859;50.560;7.268;2023-03-01T03:38:20;20.80;62.70
36556;DHT22;40859;50.560;7.268;2023-03-01T03:40:51;20.80;62.80
36556;DHT22;40859;50.560;7.268;2023-03-01T03:43:21;20.80;62.80
36556;DHT22;40859;50.560;7.268;2023-03-01T03:45:48;20.80;62.60
36556;DHT22;40859;50.560;7.268;2023-03-01T03:48:14;20.80;62.70
36556;DHT22;40859;50.560;7.268;2023-03-01T03:50:40;20.80;63.40
36556;DHT22;40859;50.560;7.268;2023-03-01T03:53:07;20.80;62.90
36556;DHT22;40859;50.560;7.268;2023-03-01T03:55:33;20.80;62.70
36556;DHT22;40859;50.560;7.268;2023-03-01T03:57:59;20.80;62.50
36556;DHT22;40859;50.560;7.268;2023-03-01T04:00:32;20.80;63.50
36556;DHT22;40859;50.560;7.268;2023-03-01T04:02:58;20.80;62.70
36556;DHT22;40859;50.560;7.268;2023-03-01T04:05:24;20.80;62.20
36556;DHT22;40859;50.560;7.268;2023-03-01T04:07:49;20.80;62.50
36556;DHT22;40859;50.560;7.268;2023-03-01T04:10:26;20.80;62.60
36556;DHT22;40859;50.560;7.268;2023-03-01T04:12:52;20.80;63.50
36556;DHT22;40859;50.560;7.268;2023-03-01T04:15:18;20.70;62.70
36556;DHT22;40859;50.560;7.268;2023-03-01T04:17:45;20.80;61.90
36556;DHT22;40859;50.560;7.268;2023-03-01T04:20:12;20.70;62.80
36556;DHT22;40859;50.560;7.268;2023-03-01T04:22:38;20.80;62.60
36556;DHT22;40859;50.560;7.268;2023-03-01T04:25:04;20.80;62.50
36556;DHT22;40859;50.560;7.268;2023-03-01T04:27:34;20.80;62.70
36556;DHT22;40859;50.560;7.268;2023-03-01T04:30:00;20.80;62.20
36556;DHT22;40859;50.560;7.268;2023-03-01T04:32:26;20.70;62.90
36556;DHT22;40859;50.560;7.268;2023-03-01T04:34:51;20.80;62.60
36556;DHT22;40859;50.560;7.268;2023-03-01T04:37:17;20.70;63.70
36556;DHT22;40859;50.560;7.268;2023-03-01T04:39:42;20.80;62.80
36556;DHT22;40859;50.560;7.268;2023-03-01T04:42:13;20.80;62.80
36556;DHT22;40859;50.560;7.268;2023-03-01T04:44:38;20.70;63.00
36556;DHT22;40859;50.560;7.268;2023-03-01T04:47:04;20.70;62.90
36556;DHT22;40859;50.560;7.268;2023-03-01T04:49:30;20.70;62.70
36556;DHT22;40859;50.560;7.268;2023-03-01T04:51:56;20.80;62.80
36556;DHT22;40859;50.560;7.268;2023-03-01T04:54:24;20.70;62.90
36556;DHT22;40859;50.560;7.268;2023-03-01T04:56:51;20.70;62.90
36556;DHT22;40859;50.560;7.268;2023-03-01T04:59:17;20.60;57.50
36556;DHT22;40859;50.560;7.268;2023-03-01T05:01:42;20.30;58.00
36556;DHT22;40859;50.560;7.268;2023-03-01T05:04:08;20.40;59.80
36556;DHT22;40859;50.560;7.268;2023-03-01T05:06:38;20.30;56.90
36556;DHT22;40859;50.560;7.268;2023-03-01T05:09:04;20.10;57.60
36556;DHT22;40859;50.560;7.268;2023-03-01T05:11:30;20.20;59.90
36556;DHT22;40859;50.560;7.268;2023-03-01T17:20:11;21.30;60.70
36556;DHT22;40859;50.560;7.268;2023-03-01T17:22:37;21.30;61.20
36556;DHT22;40859;50.560;7.268;2023-03-01T17:25:03;21.30;60.90
36556;DHT22;40859;50.560;7.268;2023-03-01T17:27:28;21.30;60.70
36556;DHT22;40859;50.560;7.268;2023-03-01T17:29:54;21.30;60.80
36556;DHT22;40859;50.560;7.268;2023-03-01T17:32:20;21.30;60.90
36556;DHT22;40859;50.560;7.268;2023-03-01T17:34:45;21.30;61.00
36556;DHT22;40859;50.560;7.268;2023-03-01T17:37:11;21.30;60.90
36556;DHT22;40859;50.560;7.268;2023-03-01T17:39:36;21.30;60.90
36556;DHT22;40859;50.560;7.268;2023-03-01T17:42:03;21.30;60.80
36556;DHT22;40859;50.560;7.268;2023-03-01T17:44:29;21.30;61.60
36556;DHT22;40859;50.560;7.268;2023-03-01T17:46:55;21.30;60.90
36556;DHT22;40859;50.560;7.268;2023-03-01T17:49:21;21.30;62.10
36556;DHT22;40859;50.560;7.268;2023-03-01T17:51:46;21.30;61.10
36556;DHT22;40859;50.560;7.268;2023-03-01T17:54:12;21.30;61.10
36556;DHT22;40859;50.560;7.268;2023-03-01T17:56:38;21.30;60.60
36556;DHT22;40859;50.560;7.268;2023-03-01T17:59:05;21.30;61.20
36556;DHT22;40859;50.560;7.268;2023-03-01T18:01:31;21.30;61.20
36556;DHT22;40859;50.560;7.268;2023-03-01T18:03:57;21.30;61.30
36556;DHT22;40859;50.560;7.268;2023-03-01T18:06:24;21.30;61.40
36556;DHT22;40859;50.560;7.268;2023-03-01T18:08:50;21.30;61.40
36556;DHT22;40859;50.560;7.268;2023-03-01T18:11:17;21.40;61.50
36556;DHT22;40859;50.560;7.268;2023-03-01T18:13:43;21.40;61.50
36556;DHT22;40859;50.560;7.268;2023-03-01T18:16:10;21.40;61.60
36556;DHT22;40859;50.560;7.268;2023-03-01T18:18:36;21.40;61.60
36556;DHT22;40859;50.560;7.268;2023-03-01T18:21:02;21.40;61.60
36556;DHT22;40859;50.560;7.268;2023-03-01T18:23:28;21.40;61.60
36556;DHT22;40859;50.560;7.268;2023-03-01T18:25:57;21.40;61.70
36556;DHT22;40859;50.560;7.268;2023-03-01T18:28:24;21.40;61.80
36556;DHT22;40859;50.560;7.268;2023-03-01T18:31:10;21.40;61.90
36556;DHT22;40859;50.560;7.268;2023-03-01T18:33:37;21.40;61.90
36556;DHT22;40859;50.560;7.268;2023-03-01T18:36:03;21.40;62.10
36556;DHT22;40859;50.560;7.268;2023-03-01T18:38:29;21.40;62.00
36556;DHT22;40859;50.560;7.268;2023-03-01T18:40:55;21.40;62.00
36556;DHT22;40859;50.560;7.268;2023-03-01T18:43:21;21.40;62.00
36556;DHT22;40859;50.560;7.268;2023-03-01T18:45:46;21.40;62.00
36556;DHT22;40859;50.560;7.268;2023-03-01T18:48:13;21.40;62.00
36556;DHT22;40859;50.560;7.268;2023-03-01T18:50:39;21.40;62.00
36556;DHT22;40859;50.560;7.268;2023-03-01T18:53:05;21.40;62.00
36556;DHT22;40859;50.560;7.268;2023-03-01T18:55:34;21.40;62.10
36556;DHT22;40859;50.560;7.268;2023-03-01T18:58:00;21.40;62.20
36556;DHT22;40859;50.560;7.268;2023-03-01T19:00:25;21.40;62.70
36556;DHT22;40859;50.560;7.268;2023-03-01T19:02:51;21.40;62.30
36556;DHT22;40859;50.560;7.268;2023-03-01T19:05:17;21.40;62.30
36556;DHT22;40859;50.560;7.268;2023-03-01T19:07:42;21.40;62.30
36556;DHT22;40859;50.560;7.268;2023-03-01T19:10:08;21.40;63.20
36556;DHT22;40859;50.560;7.268;2023-03-01T19:12:34;21.40;62.30
36556;DHT22;40859;50.560;7.268;2023-03-01T19:15:00;21.40;62.50
36556;DHT22;40859;50.560;7.268;2023-03-01T19:17:26;21.40;62.50
36556;DHT22;40859;50.560;7.268;2023-03-01T19:19:55;21.40;62.50
36556;DHT22;40859;50.560;7.268;2023-03-01T19:22:21;21.40;62.50
36556;DHT22;40859;50.560;7.268;2023-03-01T19:24:47;21.40;62.50
36556;DHT22;40859;50.560;7.268;2023-03-01T19:27:12;21.40;62.60
36556;DHT22;40859;50.560;7.268;2023-03-01T19:29:38;21.40;62.20
36556;DHT22;40859;50.560;7.268;2023-03-01T19:32:04;21.40;62.60
36556;DHT22;40859;50.560;7.268;2023-03-01T19:34:30;21.40;62.60
36556;DHT22;40859;50.560;7.268;2023-03-01T19:36:56;21.40;62.60
36556;DHT22;40859;50.560;7.268;2023-03-01T19:39:22;21.40;62.70
36556;DHT22;40859;50.560;7.268;2023-03-01T19:41:47;21.40;62.70
36556;DHT22;40859;50.560;7.268;2023-03-01T19:44:13;21.40;62.80
36556;DHT22;40859;50.560;7.268;2023-03-01T19:46:39;21.40;62.70
36556;DHT22;40859;50.560;7.268;2023-03-01T19:49:05;21.50;62.80
36556;DHT22;40859;50.560;7.268;2023-03-01T19:51:32;21.40;62.70
36556;DHT22;40859;50.560;7.268;2023-03-01T19:53:59;21.50;62.20
36556;DHT22;40859;50.560;7.268;2023-03-01T19:56:25;21.50;62.80
36556;DHT22;40859;50.560;7.268;2023-03-01T19:58:51;21.50;62.80
36556;DHT22;40859;50.560;7.268;2023-03-01T20:01:24;21.40;62.70
36556;DHT22;40859;50.560;7.268;2023-03-01T20:03:52;21.50;62.80
36556;DHT22;40859;50.560;7.268;2023-03-01T20:06:18;21.50;62.70
36556;DHT22;40859;50.560;7.268;2023-03-01T20:08:46;21.50;62.70
36556;DHT22;40859;50.560;7.268;2023-03-01T20:11:12;21.50;62.60
36556;DHT22;40859;50.560;7.268;2023-03-01T20:13:38;21.50;63.20
36556;DHT22;40859;50.560;7.268;2023-03-01T20:16:04;21.50;62.60
36556;DHT22;40859;50.560;7.268;2023-03-01T20:18:30;21.50;62.70
36556;DHT22;40859;50.560;7.268;2023-03-01T20:20:56;21.40;63.40
36556;DHT22;40859;50.560;7.268;2023-03-01T20:23:22;21.50;62.60
36556;DHT22;40859;50.560;7.268;2023-03-01T20:25:48;21.40;62.70
36556;DHT22;40859;50.560;7.268;2023-03-01T20:28:14;21.50;62.60
36556;DHT22;40859;50.560;7.268;2023-03-01T20:30:40;21.50;63.10
36556;DHT22;40859;50.560;7.268;2023-03-01T20:33:06;21.50;62.40
36556;DHT22;40859;50.560;7.268;2023-03-01T20:35:32;21.50;62.30
36556;DHT22;40859;50.560;7.268;2023-03-01T20:38:03;21.50;62.30
36556;DHT22;40859;50.560;7.268;2023-03-01T20:40:29;21.50;62.30
36556;DHT22;40859;50.560;7.268;2023-03-01T20:42:55;21.50;62.20
36556;DHT22;40859;50.560;7.268;2023-03-01T20:45:21;21.40;62.20
36556;DHT22;40859;50.560;7.268;2023-03-01T20:47:47;21.50;62.20
36556;DHT22;40859;50.560;7.268;2023-03-01T20:50:13;21.50;62.20
36556;DHT22;40859;50.560;7.268;2023-03-01T20:52:38;21.50;62.30
36556;DHT22;40859;50.560;7.268;2023-03-01T20:55:04;21.40;62.30
36556;DHT22;40859;50.560;7.268;2023-03-01T20:57:30;21.50;62.60
36556;DHT22;40859;50.560;7.268;2023-03-01T20:59:56;21.40;63.50
36556;DHT22;40859;50.560;7.268;2023-03-01T21:02:22;21.40;62.40
36556;DHT22;40859;50.560;7.268;2023-03-01T21:04:47;21.50;62.30
36556;DHT22;40859;50.560;7.268;2023-03-01T21:07:13;21.50;62.40
36556;DHT22;40859;50.560;7.268;2023-03-01T21:09:38;21.50;62.40
36556;DHT22;40859;50.560;7.268;2023-03-01T21:12:06;21.40;62.40
36556;DHT22;40859;50.560;7.268;2023-03-01T21:14:31;21.50;62.90
36556;DHT22;40859;50.560;7.268;2023-03-01T21:17:10;21.50;62.90
36556;DHT22;40859;50.560;7.268;2023-03-01T21:19:37;21.40;62.50
36556;DHT22;40859;50.560;7.268;2023-03-01T21:22:03;21.40;62.20
36556;DHT22;40859;50.560;7.268;2023-03-01T21:24:28;21.40;63.60
36556;DHT22;40859;50.560;7.268;2023-03-01T21:26:54;21.50;63.10
36556;DHT22;40859;50.560;7.268;2023-03-01T21:29:19;21.50;62.90
36556;DHT22;40859;50.560;7.268;2023-03-01T21:31:45;21.50;62.70
36556;DHT22;40859;50.560;7.268;2023-03-01T21:34:11;21.40;62.60
36556;DHT22;40859;50.560;7.268;2023-03-01T21:36:37;21.50;62.70
36556;DHT22;40859;50.560;7.268;2023-03-01T21:39:03;21.50;62.60
36556;DHT22;40859;50.560;7.268;2023-03-01T21:41:31;21.50;62.60
36556;DHT22;40859;50.560;7.268;2023-03-01T21:43:57;21.50;62.60
36556;DHT22;40859;50.560;7.268;2023-03-01T21:46:25;21.50;62.40
36556;DHT22;40859;50.560;7.268;2023-03-01T21:48:51;21.50;62.00
36556;DHT22;40859;50.560;7.268;2023-03-01T21:51:18;21.40;62.30
36556;DHT22;40859;50.560;7.268;2023-03-01T21:53:44;21.50;62.50
36556;DHT22;40859;50.560;7.268;2023-03-01T21:56:20;21.40;62.20
36556;DHT22;40859;50.560;7.268;2023-03-01T21:58:46;21.40;62.20
36556;DHT22;40859;50.560;7.268;2023-03-01T22:01:13;21.40;63.30
36556;DHT22;40859;50.560;7.268;2023-03-01T22:03:40;21.40;61.60
36556;DHT22;40859;50.560;7.268;2023-03-01T22:06:13;21.40;62.30
36556;DHT22;40859;50.560;7.268;2023-03-01T22:09:25;21.50;62.20
36556;DHT22;40859;50.560;7.268;2023-03-01T22:12:24;21.40;62.10
36556;DHT22;40859;50.560;7.268;2023-03-01T22:14:50;21.40;62.10
36556;DHT22;40859;50.560;7.268;2023-03-01T22:17:15;21.40;62.50
36556;DHT22;40859;50.560;7.268;2023-03-01T22:19:41;21.40;62.20
36556;DHT22;40859;50.560;7.268;2023-03-01T22:22:07;21.40;61.40
36556;DHT22;40859;50.560;7.268;2023-03-01T22:24:32;21.40;62.20
36556;DHT22;40859;50.560;7.268;2023-03-01T22:26:58;21.40;62.10
36556;DHT22;40859;50.560;7.268;2023-03-01T22:29:25;21.50;62.00
36556;DHT22;40859;50.560;7.268;2023-03-01T22:31:52;21.40;62.10
36556;DHT22;40859;50.560;7.268;2023-03-01T22:34:18;21.40;61.90
36556;DHT22;40859;50.560;7.268;2023-03-01T22:36:44;21.40;62.10
36556;DHT22;40859;50.560;7.268;2023-03-01T22:39:10;21.50;61.90
36556;DHT22;40859;50.560;7.268;2023-03-01T22:41:38;21.40;61.90
36556;DHT22;40859;50.560;7.268;2023-03-01T22:44:09;21.40;61.80
36556;DHT22;40859;50.560;7.268;2023-03-01T22:46:35;21.40;61.80
36556;DHT22;40859;50.560;7.268;2023-03-01T22:49:00;21.40;61.80
36556;DHT22;40859;50.560;7.268;2023-03-01T22:51:27;21.40;61.90
36556;DHT22;40859;50.560;7.268;2023-03-01T22:53:53;21.40;61.80
36556;DHT22;40859;50.560;7.268;2023-03-01T22:56:20;21.40;61.70
36556;DHT22;40859;50.560;7.268;2023-03-01T22:58:47;21.40;61.20
36556;DHT22;40859;50.560;7.268;2023-03-01T23:01:13;21.40;61.70
36556;DHT22;40859;50.560;7.268;2023-03-01T23:03:40;21.40;61.60
36556;DHT22;40859;50.560;7.268;2023-03-01T23:06:06;21.40;61.60
36556;DHT22;40859;50.560;7.268;2023-03-01T23:08:32;21.40;61.50
36556;DHT22;40859;50.560;7.268;2023-03-01T23:10:57;21.40;62.30
36556;DHT22;40859;50.560;7.268;2023-03-01T23:13:23;21.40;61.60
36556;DHT22;40859;50.560;7.268;2023-03-01T23:15:52;21.40;61.50
36556;DHT22;40859;50.560;7.268;2023-03-01T23:18:18;21.40;62.00
36556;DHT22;40859;50.560;7.268;2023-03-01T23:20:44;21.40;62.50
36556;DHT22;40859;50.560;7.268;2023-03-01T23:23:10;21.40;62.00
36556;DHT22;40859;50.560;7.268;2023-03-01T23:25:35;21.40;62.30
36556;DHT22;40859;50.560;7.268;2023-03-01T23:28:01;21.40;61.50
36556;DHT22;40859;50.560;7.268;2023-03-01T23:30:27;21.40;61.50
36556;DHT22;40859;50.560;7.268;2023-03-01T23:32:53;21.40;61.60
36556;DHT22;40859;50.560;7.268;2023-03-01T23:35:19;21.40;61.40
36556;DHT22;40859;50.560;7.268;2023-03-01T23:37:44;21.40;61.50
36556;DHT22;40859;50.560;7.268;2023-03-01T23:40:11;21.40;61.50
36556;DHT22;40859;50.560;7.268;2023-03-01T23:42:37;21.40;61.60
36556;DHT22;40859;50.560;7.268;2023-03-01T23:45:03;21.40;61.50
36556;DHT22;40859;50.560;7.268;2023-03-01T23:47:32;21.40;61.40
36556;DHT22;40859;50.560;7.268;2023-03-01T23:49:57;21.40;61.50
36556;DHT22;40859;50.560;7.268;2023-03-01T23:52:23;21.40;61.30
36556;DHT22;40859;50.560;7.268;2023-03-01T23:54:49;21.40;61.30
36556;DHT22;40859;50.560;7.268;2023-03-01T23:57:16;21.40;61.40
36556;DHT22;40859;50.560;7.268;2023-03-01T23:59:42;21.40;61.40
